sensor_id;sensor_type;location;lat;lon;timestamp;P1;durP1;ratioP1;P2;durP2;ratioP2
4274;SDS011;2151;50.988;11.068;2022-09-03T00:01:24;128.50;;;13.80;;
4274;SDS011;2151;50.988;11.068;2022-09-03T00:03:56;128.67;;;13.73;;
4274;SDS011;2151;50.988;11.068;2022-09-03T00:06:32;128.57;;;14.20;;
4274;SDS011;2151;50.988;11.068;2022-09-03T00:09:08;128.23;;;13.67;;
4274;SDS011;2151;50.988;11.068;2022-09-03T00:14:18;127.40;;;12.97;;
4274;SDS011;2151;50.988;11.068;2022-09-03T00:16:48;126.80;;;12.77;;
4274;SDS011;2151;50.988;11.068;2022-09-03T00:19:17;127.47;;;12.90;;
4274;SDS011;2151;50.988;11.068;2022-09-03T00:21:50;125.70;;;10.37;;
4274;SDS011;2151;50.988;11.068;2022-09-03T00:24:18;125.67;;;10.90;;
4274;SDS011;2151;50.988;11.068;2022-09-03T00:26:46;125.77;;;10.00;;
4274;SDS011;2151;50.988;11.068;2022-09-03T00:29:19;126.93;;;9.10;;
4274;SDS011;2151;50.988;11.068;2022-09-03T00:31:50;124.67;;;8.40;;
4274;SDS011;2151;50.988;11.068;2022-09-03T00:36:48;125.00;;;8.63;;
4274;SDS011;2151;50.988;11.068;2022-09-03T00:39:16;124.57;;;7.90;;
4274;SDS011;2151;50.988;11.068;2022-09-03T00:47:13;125.87;;;7.13;;
4274;SDS011;2151;50.988;11.068;2022-09-03T01:00:17;125.17;;;7.20;;
4274;SDS011;2151;50.988;11.068;2022-09-03T01:07:59;126.47;;;7.20;;
4274;SDS011;2151;50.988;11.068;2022-09-03T01:13:15;124.63;;;7.40;;
4274;SDS011;2151;50.988;11.068;2022-09-03T01:15:52;124.40;;;6.93;;
4274;SDS011;2151;50.988;11.068;2022-09-03T01:18:27;123.87;;;6.70;;
4274;SDS011;2151;50.988;11.068;2022-09-03T01:28:51;124.37;;;6.70;;
4274;SDS011;2151;50.988;11.068;2022-09-03T01:31:31;127.97;;;6.60;;
4274;SDS011;2151;50.988;11.068;2022-09-03T01:34:20;127.67;;;6.90;;
4274;SDS011;2151;50.988;11.068;2022-09-03T01:39:24;125.00;;;6.27;;
4274;SDS011;2151;50.988;11.068;2022-09-03T01:49:55;124.37;;;5.97;;
4274;SDS011;2151;50.988;11.068;2022-09-03T01:52:49;125.40;;;6.57;;
4274;SDS011;2151;50.988;11.068;2022-09-03T02:00:28;126.20;;;6.63;;
4274;SDS011;2151;50.988;11.068;2022-09-03T02:02:59;125.20;;;6.90;;
4274;SDS011;2151;50.988;11.068;2022-09-03T02:05:27;125.10;;;6.57;;
4274;SDS011;2151;50.988;11.068;2022-09-03T02:10:23;125.17;;;6.53;;
4274;SDS011;2151;50.988;11.068;2022-09-03T02:12:54;125.10;;;6.57;;
4274;SDS011;2151;50.988;11.068;2022-09-03T02:15:22;125.07;;;6.60;;
4274;SDS011;2151;50.988;11.068;2022-09-03T02:17:51;125.67;;;6.70;;
4274;SDS011;2151;50.988;11.068;2022-09-03T02:20:22;125.47;;;6.73;;
4274;SDS011;2151;50.988;11.068;2022-09-03T02:22:49;126.40;;;6.73;;
4274;SDS011;2151;50.988;11.068;2022-09-03T02:25:16;125.20;;;6.23;;
4274;SDS011;2151;50.988;11.068;2022-09-03T02:27:42;126.70;;;7.20;;
4274;SDS011;2151;50.988;11.068;2022-09-03T02:30:10;125.67;;;6.87;;
4274;SDS011;2151;50.988;11.068;2022-09-03T02:32:36;126.10;;;6.80;;
4274;SDS011;2151;50.988;11.068;2022-09-03T02:35:03;128.17;;;7.20;;
4274;SDS011;2151;50.988;11.068;2022-09-03T02:37:29;125.80;;;6.40;;
4274;SDS011;2151;50.988;11.068;2022-09-03T02:39:56;128.90;;;6.10;;
4274;SDS011;2151;50.988;11.068;2022-09-03T02:42:24;125.67;;;6.67;;
4274;SDS011;2151;50.988;11.068;2022-09-03T02:45:00;127.17;;;6.60;;
4274;SDS011;2151;50.988;11.068;2022-09-03T02:47:29;125.17;;;6.80;;
4274;SDS011;2151;50.988;11.068;2022-09-03T02:49:57;126.30;;;6.90;;
4274;SDS011;2151;50.988;11.068;2022-09-03T02:52:23;125.80;;;6.50;;
4274;SDS011;2151;50.988;11.068;2022-09-03T02:54:49;127.97;;;6.80;;
4274;SDS011;2151;50.988;11.068;2022-09-03T02:57:16;128.00;;;6.70;;
4274;SDS011;2151;50.988;11.068;2022-09-03T02:59:54;126.67;;;6.77;;
4274;SDS011;2151;50.988;11.068;2022-09-03T03:02:20;129.27;;;6.70;;
4274;SDS011;2151;50.988;11.068;2022-09-03T03:04:46;126.67;;;6.80;;
4274;SDS011;2151;50.988;11.068;2022-09-03T03:07:13;125.57;;;6.13;;
4274;SDS011;2151;50.988;11.068;2022-09-03T03:09:39;126.83;;;6.80;;
4274;SDS011;2151;50.988;11.068;2022-09-03T03:12:06;126.43;;;6.70;;
4274;SDS011;2151;50.988;11.068;2022-09-03T03:14:33;127.13;;;6.83;;
4274;SDS011;2151;50.988;11.068;2022-09-03T03:16:59;126.73;;;6.97;;
4274;SDS011;2151;50.988;11.068;2022-09-03T03:19:25;126.63;;;6.17;;
4274;SDS011;2151;50.988;11.068;2022-09-03T03:21:52;126.63;;;6.90;;
4274;SDS011;2151;50.988;11.068;2022-09-03T03:24:19;126.80;;;6.77;;
4274;SDS011;2151;50.988;11.068;2022-09-03T03:26:45;126.23;;;6.70;;
4274;SDS011;2151;50.988;11.068;2022-09-03T03:29:13;126.50;;;6.67;;
4274;SDS011;2151;50.988;11.068;2022-09-03T03:31:40;126.77;;;6.73;;
4274;SDS011;2151;50.988;11.068;2022-09-03T03:34:06;127.13;;;6.90;;
4274;SDS011;2151;50.988;11.068;2022-09-03T03:36:32;127.17;;;7.00;;
4274;SDS011;2151;50.988;11.068;2022-09-03T03:38:59;126.47;;;6.67;;
4274;SDS011;2151;50.988;11.068;2022-09-03T03:41:30;127.00;;;7.23;;
4274;SDS011;2151;50.988;11.068;2022-09-03T03:43:58;126.67;;;6.60;;
4274;SDS011;2151;50.988;11.068;2022-09-03T03:46:27;127.07;;;6.70;;
4274;SDS011;2151;50.988;11.068;2022-09-03T03:48:53;127.50;;;6.80;;
4274;SDS011;2151;50.988;11.068;2022-09-03T03:51:20;126.90;;;6.40;;
4274;SDS011;2151;50.988;11.068;2022-09-03T03:53:46;127.50;;;6.40;;
4274;SDS011;2151;50.988;11.068;2022-09-03T03:56:14;127.17;;;7.03;;
4274;SDS011;2151;50.988;11.068;2022-09-03T03:58:40;130.60;;;6.67;;
4274;SDS011;2151;50.988;11.068;2022-09-03T04:01:10;127.17;;;6.63;;
4274;SDS011;2151;50.988;11.068;2022-09-03T04:03:36;127.97;;;6.70;;
4274;SDS011;2151;50.988;11.068;2022-09-03T04:06:03;127.03;;;6.93;;
4274;SDS011;2151;50.988;11.068;2022-09-03T04:08:33;127.27;;;6.57;;
4274;SDS011;2151;50.988;11.068;2022-09-03T04:11:00;127.80;;;6.77;;
4274;SDS011;2151;50.988;11.068;2022-09-03T04:13:30;127.30;;;6.60;;
4274;SDS011;2151;50.988;11.068;2022-09-03T04:16:07;127.33;;;6.93;;
4274;SDS011;2151;50.988;11.068;2022-09-03T04:18:36;127.77;;;7.07;;
4274;SDS011;2151;50.988;11.068;2022-09-03T04:21:04;128.90;;;7.03;;
4274;SDS011;2151;50.988;11.068;2022-09-03T04:23:31;128.77;;;6.90;;
4274;SDS011;2151;50.988;11.068;2022-09-03T04:25:57;127.13;;;7.00;;
4274;SDS011;2151;50.988;11.068;2022-09-03T04:28:24;127.33;;;6.60;;
4274;SDS011;2151;50.988;11.068;2022-09-03T04:30:51;127.40;;;6.53;;
4274;SDS011;2151;50.988;11.068;2022-09-03T04:33:18;127.77;;;6.67;;
4274;SDS011;2151;50.988;11.068;2022-09-03T04:35:44;129.40;;;6.80;;
4274;SDS011;2151;50.988;11.068;2022-09-03T04:38:11;128.37;;;7.00;;
4274;SDS011;2151;50.988;11.068;2022-09-03T04:40:38;127.20;;;6.20;;
4274;SDS011;2151;50.988;11.068;2022-09-03T04:43:04;129.10;;;7.47;;
4274;SDS011;2151;50.988;11.068;2022-09-03T04:45:31;132.43;;;6.53;;
4274;SDS011;2151;50.988;11.068;2022-09-03T04:48:00;127.40;;;6.40;;
4274;SDS011;2151;50.988;11.068;2022-09-03T04:50:27;127.10;;;6.93;;
4274;SDS011;2151;50.988;11.068;2022-09-03T04:52:54;128.67;;;7.50;;
4274;SDS011;2151;50.988;11.068;2022-09-03T04:55:31;128.03;;;6.97;;
4274;SDS011;2151;50.988;11.068;2022-09-03T04:57:58;127.80;;;6.73;;
4274;SDS011;2151;50.988;11.068;2022-09-03T05:00:24;126.80;;;6.87;;
4274;SDS011;2151;50.988;11.068;2022-09-03T05:02:51;127.80;;;7.30;;
4274;SDS011;2151;50.988;11.068;2022-09-03T05:05:17;130.30;;;7.80;;
4274;SDS011;2151;50.988;11.068;2022-09-03T05:07:44;127.93;;;6.80;;
4274;SDS011;2151;50.988;11.068;2022-09-03T05:10:11;126.33;;;6.60;;
4274;SDS011;2151;50.988;11.068;2022-09-03T05:12:41;127.97;;;6.73;;
4274;SDS011;2151;50.988;11.068;2022-09-03T05:15:08;127.37;;;6.93;;
4274;SDS011;2151;50.988;11.068;2022-09-03T05:17:34;130.07;;;6.37;;
4274;SDS011;2151;50.988;11.068;2022-09-03T05:20:03;126.97;;;6.63;;
4274;SDS011;2151;50.988;11.068;2022-09-03T05:22:29;127.27;;;6.50;;
4274;SDS011;2151;50.988;11.068;2022-09-03T05:24:56;131.90;;;6.60;;
4274;SDS011;2151;50.988;11.068;2022-09-03T05:27:22;126.37;;;6.23;;
4274;SDS011;2151;50.988;11.068;2022-09-03T05:29:49;126.87;;;6.43;;
4274;SDS011;2151;50.988;11.068;2022-09-03T05:32:15;126.47;;;6.50;;
4274;SDS011;2151;50.988;11.068;2022-09-03T05:34:42;128.73;;;7.20;;
4274;SDS011;2151;50.988;11.068;2022-09-03T05:37:09;126.77;;;6.70;;
4274;SDS011;2151;50.988;11.068;2022-09-03T05:39:37;126.23;;;6.60;;
4274;SDS011;2151;50.988;11.068;2022-09-03T05:42:03;127.90;;;6.50;;
4274;SDS011;2151;50.988;11.068;2022-09-03T05:44:31;126.73;;;6.83;;
4274;SDS011;2151;50.988;11.068;2022-09-03T05:46:57;127.07;;;6.90;;
4274;SDS011;2151;50.988;11.068;2022-09-03T05:49:25;126.80;;;7.00;;
4274;SDS011;2151;50.988;11.068;2022-09-03T05:51:51;127.67;;;6.70;;
4274;SDS011;2151;50.988;11.068;2022-09-03T05:54:17;126.67;;;6.97;;
4274;SDS011;2151;50.988;11.068;2022-09-03T05:56:44;127.57;;;7.10;;
4274;SDS011;2151;50.988;11.068;2022-09-03T05:59:10;128.97;;;6.90;;
4274;SDS011;2151;50.988;11.068;2022-09-03T06:01:40;127.10;;;6.90;;
4274;SDS011;2151;50.988;11.068;2022-09-03T06:04:18;130.83;;;6.87;;
4274;SDS011;2151;50.988;11.068;2022-09-03T06:06:46;126.10;;;6.47;;
4274;SDS011;2151;50.988;11.068;2022-09-03T06:09:13;127.27;;;6.87;;
4274;SDS011;2151;50.988;11.068;2022-09-03T06:11:41;128.77;;;7.10;;
4274;SDS011;2151;50.988;11.068;2022-09-03T06:14:09;126.17;;;6.60;;
4274;SDS011;2151;50.988;11.068;2022-09-03T06:16:38;126.37;;;7.10;;
4274;SDS011;2151;50.988;11.068;2022-09-03T06:19:05;126.63;;;6.93;;
4274;SDS011;2151;50.988;11.068;2022-09-03T06:21:41;125.30;;;6.23;;
4274;SDS011;2151;50.988;11.068;2022-09-03T06:24:09;126.00;;;6.73;;
4274;SDS011;2151;50.988;11.068;2022-09-03T06:26:37;126.17;;;7.00;;
4274;SDS011;2151;50.988;11.068;2022-09-03T06:29:04;126.30;;;6.67;;
4274;SDS011;2151;50.988;11.068;2022-09-03T06:31:31;126.80;;;7.13;;
4274;SDS011;2151;50.988;11.068;2022-09-03T06:33:57;127.37;;;6.90;;
4274;SDS011;2151;50.988;11.068;2022-09-03T06:36:29;125.30;;;6.77;;
4274;SDS011;2151;50.988;11.068;2022-09-03T06:38:55;125.77;;;6.43;;
4274;SDS011;2151;50.988;11.068;2022-09-03T06:41:24;125.00;;;6.27;;
4274;SDS011;2151;50.988;11.068;2022-09-03T06:43:52;124.53;;;6.67;;
4274;SDS011;2151;50.988;11.068;2022-09-03T06:46:20;125.87;;;6.17;;
4274;SDS011;2151;50.988;11.068;2022-09-03T06:48:49;125.77;;;6.83;;
4274;SDS011;2151;50.988;11.068;2022-09-03T06:51:20;124.70;;;6.87;;
4274;SDS011;2151;50.988;11.068;2022-09-03T06:53:48;125.60;;;6.77;;
4274;SDS011;2151;50.988;11.068;2022-09-03T06:56:16;124.63;;;6.53;;
4274;SDS011;2151;50.988;11.068;2022-09-03T06:58:43;126.00;;;7.03;;
4274;SDS011;2151;50.988;11.068;2022-09-03T07:01:11;127.37;;;6.93;;
4274;SDS011;2151;50.988;11.068;2022-09-03T07:03:40;124.37;;;6.80;;
4274;SDS011;2151;50.988;11.068;2022-09-03T07:06:08;124.10;;;6.70;;
4274;SDS011;2151;50.988;11.068;2022-09-03T07:08:35;126.50;;;7.50;;
4274;SDS011;2151;50.988;11.068;2022-09-03T07:11:02;127.43;;;7.70;;
4274;SDS011;2151;50.988;11.068;2022-09-03T07:13:31;126.27;;;7.03;;
4274;SDS011;2151;50.988;11.068;2022-09-03T07:15:59;125.27;;;8.17;;
4274;SDS011;2151;50.988;11.068;2022-09-03T07:18:26;126.80;;;11.07;;
4274;SDS011;2151;50.988;11.068;2022-09-03T07:20:56;126.90;;;13.57;;
4274;SDS011;2151;50.988;11.068;2022-09-03T07:23:23;132.43;;;19.27;;
4274;SDS011;2151;50.988;11.068;2022-09-03T07:25:56;133.50;;;16.37;;
4274;SDS011;2151;50.988;11.068;2022-09-03T07:28:23;133.47;;;16.50;;
4274;SDS011;2151;50.988;11.068;2022-09-03T07:30:52;134.20;;;14.33;;
4274;SDS011;2151;50.988;11.068;2022-09-03T07:33:19;134.37;;;11.93;;
4274;SDS011;2151;50.988;11.068;2022-09-03T07:35:46;131.00;;;9.83;;
4274;SDS011;2151;50.988;11.068;2022-09-03T07:38:16;130.53;;;8.50;;
4274;SDS011;2151;50.988;11.068;2022-09-03T07:40:45;131.27;;;9.10;;
4274;SDS011;2151;50.988;11.068;2022-09-03T07:43:12;131.70;;;8.90;;
4274;SDS011;2151;50.988;11.068;2022-09-03T07:45:39;126.07;;;8.13;;
4274;SDS011;2151;50.988;11.068;2022-09-03T07:48:05;124.00;;;7.23;;
4274;SDS011;2151;50.988;11.068;2022-09-03T07:50:31;124.13;;;6.80;;
4274;SDS011;2151;50.988;11.068;2022-09-03T07:53:04;126.50;;;6.17;;
4274;SDS011;2151;50.988;11.068;2022-09-03T07:55:30;122.57;;;6.53;;
4274;SDS011;2151;50.988;11.068;2022-09-03T07:57:57;121.10;;;5.90;;
4274;SDS011;2151;50.988;11.068;2022-09-03T08:00:24;122.20;;;6.30;;
4274;SDS011;2151;50.988;11.068;2022-09-03T08:02:53;120.03;;;5.63;;
4274;SDS011;2151;50.988;11.068;2022-09-03T08:05:22;118.57;;;5.90;;
4274;SDS011;2151;50.988;11.068;2022-09-03T08:07:49;121.57;;;6.60;;
4274;SDS011;2151;50.988;11.068;2022-09-03T08:10:16;119.23;;;6.17;;
4274;SDS011;2151;50.988;11.068;2022-09-03T08:12:42;119.67;;;5.60;;
4274;SDS011;2151;50.988;11.068;2022-09-03T08:15:08;118.70;;;5.83;;
4274;SDS011;2151;50.988;11.068;2022-09-03T08:17:36;118.57;;;5.63;;
4274;SDS011;2151;50.988;11.068;2022-09-03T08:20:03;118.27;;;6.30;;
4274;SDS011;2151;50.988;11.068;2022-09-03T08:22:29;117.57;;;5.83;;
4274;SDS011;2151;50.988;11.068;2022-09-03T08:24:55;117.47;;;5.47;;
4274;SDS011;2151;50.988;11.068;2022-09-03T08:27:22;117.20;;;5.00;;
4274;SDS011;2151;50.988;11.068;2022-09-03T08:29:50;116.90;;;5.53;;
4274;SDS011;2151;50.988;11.068;2022-09-03T08:32:18;116.97;;;5.23;;
4274;SDS011;2151;50.988;11.068;2022-09-03T08:34:45;117.20;;;5.83;;
4274;SDS011;2151;50.988;11.068;2022-09-03T08:37:12;115.53;;;5.10;;
4274;SDS011;2151;50.988;11.068;2022-09-03T08:39:38;116.77;;;5.80;;
4274;SDS011;2151;50.988;11.068;2022-09-03T08:44:41;115.07;;;5.03;;
4274;SDS011;2151;50.988;11.068;2022-09-03T08:50:48;114.77;;;4.83;;
4274;SDS011;2151;50.988;11.068;2022-09-03T08:52:59;115.07;;;5.00;;
4274;SDS011;2151;50.988;11.068;2022-09-03T08:55:33;116.40;;;4.70;;
4274;SDS011;2151;50.988;11.068;2022-09-03T08:58:11;115.27;;;4.97;;
4274;SDS011;2151;50.988;11.068;2022-09-03T09:05:46;114.90;;;5.50;;
4274;SDS011;2151;50.988;11.068;2022-09-03T09:08:32;114.80;;;5.50;;
4274;SDS011;2151;50.988;11.068;2022-09-03T09:13:27;115.07;;;5.20;;
4274;SDS011;2151;50.988;11.068;2022-09-03T09:21:12;113.00;;;4.67;;
4274;SDS011;2151;50.988;11.068;2022-09-03T09:23:47;114.37;;;4.70;;
4274;SDS011;2151;50.988;11.068;2022-09-03T09:26:14;113.20;;;4.90;;
4274;SDS011;2151;50.988;11.068;2022-09-03T09:28:42;115.67;;;6.37;;
4274;SDS011;2151;50.988;11.068;2022-09-03T09:31:12;114.50;;;5.30;;
4274;SDS011;2151;50.988;11.068;2022-09-03T09:33:41;114.80;;;5.40;;
4274;SDS011;2151;50.988;11.068;2022-09-03T09:36:10;113.30;;;4.87;;
4274;SDS011;2151;50.988;11.068;2022-09-03T09:38:38;112.10;;;4.30;;
4274;SDS011;2151;50.988;11.068;2022-09-03T09:41:09;111.77;;;4.40;;
4274;SDS011;2151;50.988;11.068;2022-09-03T09:43:36;112.77;;;4.53;;
4274;SDS011;2151;50.988;11.068;2022-09-03T09:46:08;111.67;;;4.70;;
4274;SDS011;2151;50.988;11.068;2022-09-03T09:48:40;112.77;;;5.30;;
4274;SDS011;2151;50.988;11.068;2022-09-03T09:51:12;111.70;;;4.53;;
4274;SDS011;2151;50.988;11.068;2022-09-03T09:53:39;112.70;;;4.83;;
4274;SDS011;2151;50.988;11.068;2022-09-03T09:56:06;111.87;;;4.73;;
4274;SDS011;2151;50.988;11.068;2022-09-03T09:58:33;117.00;;;5.07;;
4274;SDS011;2151;50.988;11.068;2022-09-03T10:01:01;112.07;;;4.60;;
4274;SDS011;2151;50.988;11.068;2022-09-03T10:03:30;111.57;;;4.70;;
4274;SDS011;2151;50.988;11.068;2022-09-03T10:06:08;112.37;;;4.43;;
4274;SDS011;2151;50.988;11.068;2022-09-03T10:09:07;111.50;;;4.53;;
4274;SDS011;2151;50.988;11.068;2022-09-03T10:11:34;112.30;;;4.60;;
4274;SDS011;2151;50.988;11.068;2022-09-03T10:14:07;113.20;;;4.30;;
4274;SDS011;2151;50.988;11.068;2022-09-03T10:16:38;111.33;;;4.33;;
4274;SDS011;2151;50.988;11.068;2022-09-03T10:19:08;111.50;;;4.47;;
4274;SDS011;2151;50.988;11.068;2022-09-03T10:26:32;110.70;;;4.10;;
4274;SDS011;2151;50.988;11.068;2022-09-03T10:29:02;111.07;;;4.40;;
4274;SDS011;2151;50.988;11.068;2022-09-03T10:36:38;112.70;;;4.00;;
4274;SDS011;2151;50.988;11.068;2022-09-03T10:39:12;109.90;;;3.93;;
4274;SDS011;2151;50.988;11.068;2022-09-03T10:41:46;111.47;;;4.37;;
4274;SDS011;2151;50.988;11.068;2022-09-03T10:49:20;110.73;;;4.27;;
4274;SDS011;2151;50.988;11.068;2022-09-03T10:57:28;109.47;;;4.00;;
4274;SDS011;2151;50.988;11.068;2022-09-03T11:00:07;109.87;;;4.70;;
4274;SDS011;2151;50.988;11.068;2022-09-03T11:05:11;110.00;;;4.80;;
4274;SDS011;2151;50.988;11.068;2022-09-03T11:07:45;108.97;;;3.90;;
4274;SDS011;2151;50.988;11.068;2022-09-03T11:10:24;109.10;;;4.10;;
4274;SDS011;2151;50.988;11.068;2022-09-03T11:15:45;109.00;;;4.20;;
4274;SDS011;2151;50.988;11.068;2022-09-03T11:18:15;109.00;;;4.33;;
4274;SDS011;2151;50.988;11.068;2022-09-03T11:20:45;112.10;;;4.30;;
4274;SDS011;2151;50.988;11.068;2022-09-03T11:23:14;108.80;;;4.00;;
4274;SDS011;2151;50.988;11.068;2022-09-03T11:25:49;109.20;;;4.30;;
4274;SDS011;2151;50.988;11.068;2022-09-03T11:31:10;110.60;;;4.87;;
4274;SDS011;2151;50.988;11.068;2022-09-03T11:33:46;109.57;;;4.43;;
4274;SDS011;2151;50.988;11.068;2022-09-03T11:36:22;114.57;;;4.20;;
4274;SDS011;2151;50.988;11.068;2022-09-03T11:38:53;110.13;;;4.30;;
4274;SDS011;2151;50.988;11.068;2022-09-03T11:41:40;110.87;;;4.40;;
4274;SDS011;2151;50.988;11.068;2022-09-03T11:44:18;109.37;;;4.43;;
4274;SDS011;2151;50.988;11.068;2022-09-03T11:46:55;109.60;;;4.13;;
4274;SDS011;2151;50.988;11.068;2022-09-03T11:49:29;109.07;;;4.17;;
4274;SDS011;2151;50.988;11.068;2022-09-03T11:51:59;109.67;;;4.03;;
4274;SDS011;2151;50.988;11.068;2022-09-03T11:54:26;109.80;;;4.47;;
4274;SDS011;2151;50.988;11.068;2022-09-03T11:57:05;109.77;;;4.30;;
4274;SDS011;2151;50.988;11.068;2022-09-03T11:59:31;109.73;;;4.27;;
4274;SDS011;2151;50.988;11.068;2022-09-03T12:02:03;111.07;;;4.87;;
4274;SDS011;2151;50.988;11.068;2022-09-03T12:04:46;110.43;;;4.40;;
4274;SDS011;2151;50.988;11.068;2022-09-03T12:09:51;110.03;;;4.20;;
4274;SDS011;2151;50.988;11.068;2022-09-03T12:18:10;110.67;;;4.20;;
4274;SDS011;2151;50.988;11.068;2022-09-03T12:20:45;109.53;;;4.20;;
4274;SDS011;2151;50.988;11.068;2022-09-03T12:23:13;110.87;;;4.20;;
4274;SDS011;2151;50.988;11.068;2022-09-03T12:25:50;111.20;;;4.37;;
4274;SDS011;2151;50.988;11.068;2022-09-03T12:28:18;111.37;;;4.13;;
4274;SDS011;2151;50.988;11.068;2022-09-03T12:30:47;116.53;;;4.80;;
4274;SDS011;2151;50.988;11.068;2022-09-03T12:33:16;111.50;;;4.77;;
4274;SDS011;2151;50.988;11.068;2022-09-03T12:35:42;112.97;;;5.40;;
4274;SDS011;2151;50.988;11.068;2022-09-03T12:38:28;111.90;;;4.97;;
4274;SDS011;2151;50.988;11.068;2022-09-03T12:41:21;111.90;;;4.87;;
4274;SDS011;2151;50.988;11.068;2022-09-03T12:43:54;112.77;;;4.63;;
4274;SDS011;2151;50.988;11.068;2022-09-03T12:46:22;112.37;;;4.80;;
4274;SDS011;2151;50.988;11.068;2022-09-03T12:48:59;112.23;;;4.77;;
4274;SDS011;2151;50.988;11.068;2022-09-03T12:51:57;113.20;;;4.87;;
4274;SDS011;2151;50.988;11.068;2022-09-03T12:54:30;112.17;;;4.70;;
4274;SDS011;2151;50.988;11.068;2022-09-03T12:56:57;112.40;;;4.83;;
4274;SDS011;2151;50.988;11.068;2022-09-03T12:59:25;116.23;;;4.83;;
4274;SDS011;2151;50.988;11.068;2022-09-03T13:01:53;112.00;;;4.87;;
4274;SDS011;2151;50.988;11.068;2022-09-03T13:04:28;112.47;;;4.80;;
4274;SDS011;2151;50.988;11.068;2022-09-03T13:09:34;112.00;;;4.60;;
4274;SDS011;2151;50.988;11.068;2022-09-03T13:12:01;112.03;;;4.63;;
4274;SDS011;2151;50.988;11.068;2022-09-03T13:14:41;112.90;;;4.90;;
4274;SDS011;2151;50.988;11.068;2022-09-03T13:27:41;112.67;;;4.90;;
4274;SDS011;2151;50.988;11.068;2022-09-03T13:30:18;113.70;;;4.80;;
4274;SDS011;2151;50.988;11.068;2022-09-03T13:37:44;112.07;;;4.77;;
4274;SDS011;2151;50.988;11.068;2022-09-03T13:40:15;112.67;;;4.70;;
4274;SDS011;2151;50.988;11.068;2022-09-03T13:42:52;112.17;;;4.83;;
4274;SDS011;2151;50.988;11.068;2022-09-03T13:48:42;113.23;;;4.67;;
4274;SDS011;2151;50.988;11.068;2022-09-03T13:57:03;113.93;;;5.00;;
4274;SDS011;2151;50.988;11.068;2022-09-03T14:02:17;113.10;;;4.90;;
4274;SDS011;2151;50.988;11.068;2022-09-03T14:05:05;124.30;;;4.73;;
4274;SDS011;2151;50.988;11.068;2022-09-03T14:07:51;113.00;;;4.80;;
4274;SDS011;2151;50.988;11.068;2022-09-03T14:10:24;112.87;;;4.33;;
4274;SDS011;2151;50.988;11.068;2022-09-03T14:13:29;112.33;;;4.80;;
4274;SDS011;2151;50.988;11.068;2022-09-03T14:18:37;111.57;;;4.40;;
4274;SDS011;2151;50.988;11.068;2022-09-03T14:21:21;112.27;;;4.80;;
4274;SDS011;2151;50.988;11.068;2022-09-03T14:26:35;112.07;;;5.30;;
4274;SDS011;2151;50.988;11.068;2022-09-03T14:31:48;112.77;;;5.50;;
4274;SDS011;2151;50.988;11.068;2022-09-03T15:04:48;114.37;;;4.53;;
4274;SDS011;2151;50.988;11.068;2022-09-03T15:07:30;112.47;;;4.83;;
4274;SDS011;2151;50.988;11.068;2022-09-03T15:12:40;112.30;;;4.57;;
4274;SDS011;2151;50.988;11.068;2022-09-03T15:15:11;116.40;;;5.07;;
4274;SDS011;2151;50.988;11.068;2022-09-03T15:23:11;113.37;;;5.07;;
4274;SDS011;2151;50.988;11.068;2022-09-03T15:34:03;118.17;;;5.03;;
4274;SDS011;2151;50.988;11.068;2022-09-03T15:36:44;113.80;;;5.13;;
4274;SDS011;2151;50.988;11.068;2022-09-03T15:39:21;114.43;;;5.03;;
4274;SDS011;2151;50.988;11.068;2022-09-03T15:41:53;114.60;;;5.10;;
4274;SDS011;2151;50.988;11.068;2022-09-03T15:44:22;114.80;;;5.70;;
4274;SDS011;2151;50.988;11.068;2022-09-03T15:46:59;113.60;;;5.20;;
4274;SDS011;2151;50.988;11.068;2022-09-03T15:52:22;115.07;;;5.40;;
4274;SDS011;2151;50.988;11.068;2022-09-03T15:54:57;116.93;;;5.60;;
4274;SDS011;2151;50.988;11.068;2022-09-03T15:57:29;122.40;;;5.33;;
4274;SDS011;2151;50.988;11.068;2022-09-03T16:02:39;115.30;;;5.80;;
4274;SDS011;2151;50.988;11.068;2022-09-03T16:05:14;114.67;;;4.93;;
4274;SDS011;2151;50.988;11.068;2022-09-03T16:10:15;116.20;;;5.30;;
4274;SDS011;2151;50.988;11.068;2022-09-03T16:15:45;118.07;;;6.80;;
4274;SDS011;2151;50.988;11.068;2022-09-03T16:20:45;118.27;;;6.87;;
4274;SDS011;2151;50.988;11.068;2022-09-03T16:23:24;116.73;;;6.23;;
4274;SDS011;2151;50.988;11.068;2022-09-03T16:25:57;118.00;;;6.60;;
4274;SDS011;2151;50.988;11.068;2022-09-03T16:28:59;117.20;;;6.70;;
4274;SDS011;2151;50.988;11.068;2022-09-03T16:34:01;117.37;;;5.60;;
4274;SDS011;2151;50.988;11.068;2022-09-03T16:44:46;118.40;;;6.13;;
4274;SDS011;2151;50.988;11.068;2022-09-03T17:00:41;120.27;;;8.00;;
4274;SDS011;2151;50.988;11.068;2022-09-03T17:05:57;125.77;;;9.30;;
4274;SDS011;2151;50.988;11.068;2022-09-03T17:24:15;123.17;;;8.83;;
4274;SDS011;2151;50.988;11.068;2022-09-03T17:29:16;122.10;;;7.50;;
4274;SDS011;2151;50.988;11.068;2022-09-03T17:32:01;120.70;;;7.93;;
4274;SDS011;2151;50.988;11.068;2022-09-03T17:37:42;123.00;;;9.17;;
4274;SDS011;2151;50.988;11.068;2022-09-03T17:45:13;126.43;;;10.40;;
4274;SDS011;2151;50.988;11.068;2022-09-03T17:48:06;126.40;;;9.60;;
4274;SDS011;2151;50.988;11.068;2022-09-03T17:53:36;119.57;;;6.30;;
4274;SDS011;2151;50.988;11.068;2022-09-03T17:56:25;121.87;;;7.23;;
4274;SDS011;2151;50.988;11.068;2022-09-03T17:59:04;120.80;;;7.13;;
4274;SDS011;2151;50.988;11.068;2022-09-03T18:01:34;118.97;;;5.90;;
4274;SDS011;2151;50.988;11.068;2022-09-03T18:06:46;118.97;;;6.33;;
4274;SDS011;2151;50.988;11.068;2022-09-03T18:09:26;123.50;;;6.30;;
4274;SDS011;2151;50.988;11.068;2022-09-03T18:12:04;120.57;;;6.70;;
4274;SDS011;2151;50.988;11.068;2022-09-03T18:14:37;123.40;;;8.40;;
4274;SDS011;2151;50.988;11.068;2022-09-03T18:17:09;128.80;;;10.80;;
4274;SDS011;2151;50.988;11.068;2022-09-03T18:22:24;120.97;;;7.03;;
4274;SDS011;2151;50.988;11.068;2022-09-03T18:25:12;122.07;;;7.00;;
4274;SDS011;2151;50.988;11.068;2022-09-03T18:28:03;120.70;;;6.30;;
4274;SDS011;2151;50.988;11.068;2022-09-03T18:30:51;124.53;;;6.33;;
4274;SDS011;2151;50.988;11.068;2022-09-03T18:33:36;120.80;;;6.20;;
4274;SDS011;2151;50.988;11.068;2022-09-03T18:36:21;121.17;;;6.60;;
4274;SDS011;2151;50.988;11.068;2022-09-03T18:42:06;122.70;;;6.40;;
4274;SDS011;2151;50.988;11.068;2022-09-03T18:50:55;121.00;;;6.70;;
4274;SDS011;2151;50.988;11.068;2022-09-03T18:56:34;121.97;;;7.20;;
4274;SDS011;2151;50.988;11.068;2022-09-03T19:02:19;128.53;;;11.43;;
4274;SDS011;2151;50.988;11.068;2022-09-03T19:05:13;126.60;;;10.73;;
4274;SDS011;2151;50.988;11.068;2022-09-03T19:11:09;128.43;;;8.77;;
4274;SDS011;2151;50.988;11.068;2022-09-03T19:14:05;128.47;;;8.53;;
4274;SDS011;2151;50.988;11.068;2022-09-03T19:23:26;126.23;;;8.53;;
4274;SDS011;2151;50.988;11.068;2022-09-03T19:26:23;123.70;;;7.90;;
4274;SDS011;2151;50.988;11.068;2022-09-03T19:29:34;125.57;;;8.30;;
4274;SDS011;2151;50.988;11.068;2022-09-03T19:32:19;126.67;;;8.50;;
4274;SDS011;2151;50.988;11.068;2022-09-03T19:35:18;123.47;;;8.07;;
4274;SDS011;2151;50.988;11.068;2022-09-03T19:38:39;125.67;;;7.60;;
4274;SDS011;2151;50.988;11.068;2022-09-03T19:41:16;124.77;;;7.90;;
4274;SDS011;2151;50.988;11.068;2022-09-03T19:47:08;123.57;;;7.47;;
4274;SDS011;2151;50.988;11.068;2022-09-03T19:52:54;125.00;;;7.80;;
4274;SDS011;2151;50.988;11.068;2022-09-03T19:55:41;126.43;;;8.27;;
4274;SDS011;2151;50.988;11.068;2022-09-03T19:58:33;125.77;;;7.93;;
4274;SDS011;2151;50.988;11.068;2022-09-03T20:01:19;126.03;;;8.00;;
4274;SDS011;2151;50.988;11.068;2022-09-03T20:04:09;123.97;;;7.50;;